< < Back
Terminal Aerodrome Forecast


Current Version              Previous Versions:   1  2  3  4  5  6  7  8  9  

Terminal Aerodrome Forecast

633
FTUS42 KFFC 231100
TAFCSG
TAF
KCSG 231122Z 2312/2412 30004KT P6SM FEW250
     FM231600 32005KT P6SM FEW040
     FM231900 33008KT P6SM VCSH SCT050
      TEMPO 2320/2324 5SM -TSRA BKN035CB
     FM240300 35006KT P6SM SCT070 SCT120
     FM241000 02005KT P6SM VCSH SCT040 SCT070=

Latest METAR

831
SAUS70 KWBC 231300
MTRCSG
METAR KCSG 231251Z AUTO 00000KT 10SM CLR 28/23 A3001 RMK AO2 SLP156
T02830228


USA.gov is the U.S. government's official web portal to all federal, state and local government web resources and services.